createdAt,value
2019-03-21T00:02:25.791Z,102099.81
2019-03-21T00:04:58.912Z,102098.91
2019-03-21T00:07:30.228Z,102103.59
2019-03-21T00:10:30.676Z,102088.72
2019-03-21T00:13:02.090Z,102095.04
2019-03-21T00:15:53.185Z,102091.30
2019-03-21T00:18:25.810Z,102096.59
2019-03-21T00:20:57.673Z,102096.91
2019-03-21T00:23:29.115Z,102090.24
2019-03-21T00:26:02.378Z,102092.48
2019-03-21T00:28:33.344Z,102091.22
2019-03-21T00:31:04.499Z,102085.25
2019-03-21T00:33:36.769Z,102079.10
2019-03-21T00:36:09.218Z,102088.43
2019-03-21T00:38:40.434Z,102090.16
2019-03-21T00:41:11.481Z,102084.31
2019-03-21T00:43:42.750Z,102082.37
2019-03-21T00:46:13.939Z,102082.67
2019-03-21T00:48:45.046Z,102082.43
2019-03-21T00:51:16.266Z,102081.72
2019-03-21T00:53:48.426Z,102091.59
2019-03-21T00:56:19.779Z,102092.91
2019-03-21T00:58:51.298Z,102088.07
2019-03-21T01:01:22.784Z,102089.40
2019-03-21T01:03:54.294Z,102085.36
2019-03-21T01:06:25.746Z,102082.15
2019-03-21T01:08:57.405Z,102081.84
2019-03-21T01:11:29.879Z,102078.53
2019-03-21T01:14:01.342Z,102074.56
2019-03-21T01:16:32.684Z,102083.11
2019-03-21T01:19:04.010Z,102082.80
2019-03-21T01:21:36.416Z,102081.55
2019-03-21T01:24:07.661Z,102085.66
2019-03-21T01:26:39.103Z,102081.84
2019-03-21T01:29:10.347Z,102080.66
2019-03-21T01:31:41.697Z,102077.16
2019-03-21T01:34:14.076Z,102078.45
2019-03-21T01:36:45.159Z,102077.13
2019-03-21T01:39:16.482Z,102074.68
2019-03-21T01:41:48.942Z,102077.92
2019-03-21T01:44:20.396Z,102081.25
2019-03-21T01:46:51.540Z,102089.23
2019-03-21T01:49:22.785Z,102082.54
2019-03-21T01:51:54.244Z,102082.08
2019-03-21T01:54:25.827Z,102082.82
2019-03-21T01:56:57.037Z,102094.53
2019-03-21T01:59:28.076Z,102094.81
2019-03-21T02:01:59.504Z,102089.26
2019-03-21T02:04:31.987Z,102085.98
2019-03-21T02:07:04.968Z,102085.16
2019-03-21T02:09:36.067Z,102088.89
2019-03-21T02:12:07.493Z,102089.02
2019-03-21T02:14:38.596Z,102086.89
2019-03-21T02:17:09.577Z,102087.75
2019-03-21T02:19:41.058Z,102094.03
2019-03-21T02:22:12.129Z,102085.06
2019-03-21T02:24:43.430Z,102083.88
2019-03-21T02:27:15.858Z,102088.97
2019-03-21T02:29:47.162Z,102079.32
2019-03-21T02:32:19.551Z,102070.02
2019-03-21T02:34:51.905Z,102072.94
2019-03-21T02:37:23.199Z,102080.98
2019-03-21T02:39:59.820Z,102074.12
2019-03-21T02:42:27.787Z,102084.67
2019-03-21T02:45:08.257Z,102085.27
2019-03-21T02:47:32.118Z,102088.03
2019-03-21T02:50:04.876Z,102092.47
2019-03-21T02:52:36.076Z,102091.78
2019-03-21T02:55:09.704Z,102083.86
2019-03-21T02:57:41.721Z,102086.26
2019-03-21T03:00:18.954Z,102085.31
2019-03-21T03:02:51.060Z,102081.56
2019-03-21T03:05:25.630Z,102086.11
2019-03-21T03:07:57.064Z,102081.49
2019-03-21T03:10:37.634Z,102087.02
2019-03-21T03:13:09.865Z,102084.45
2019-03-21T03:15:41.675Z,102063.20
2019-03-21T03:18:17.544Z,102086.52
2019-03-21T03:20:49.879Z,102080.50
2019-03-21T03:23:21.060Z,102085.33
2019-03-21T03:25:52.347Z,102081.08
2019-03-21T03:28:38.887Z,102082.94
2019-03-21T03:31:10.552Z,102081.05
2019-03-21T03:33:41.774Z,102087.02
2019-03-21T03:36:16.196Z,102088.05
2019-03-21T03:38:47.358Z,102085.75
2019-03-21T03:41:20.378Z,102096.67
2019-03-21T03:43:53.216Z,102099.11
2019-03-21T03:46:25.599Z,102100.67
2019-03-21T03:48:56.733Z,102103.30
2019-03-21T03:51:27.815Z,102099.88
2019-03-21T03:53:59.085Z,102100.67
2019-03-21T03:56:30.682Z,102100.67
2019-03-21T03:59:07.880Z,102104.46
2019-03-21T04:01:39.120Z,102101.69
2019-03-21T04:04:10.440Z,102112.52
2019-03-21T04:06:41.626Z,102106.67
2019-03-21T04:09:12.686Z,102113.95
2019-03-21T04:11:45.137Z,102110.08
2019-03-21T04:14:16.485Z,102118.03
2019-03-21T04:16:48.436Z,102117.16
2019-03-21T04:19:19.764Z,102111.67
2019-03-21T04:21:51.444Z,102116.79
2019-03-21T04:24:22.794Z,102112.83
2019-03-21T04:26:54.350Z,102122.27
2019-03-21T04:29:25.696Z,102127.72
2019-03-21T04:31:57.273Z,102131.14
2019-03-21T04:34:29.034Z,102127.06
2019-03-21T04:37:01.339Z,102121.05
2019-03-21T04:39:33.466Z,102135.48
2019-03-21T04:42:06.448Z,102136.34
2019-03-21T04:44:37.692Z,102131.16
2019-03-21T04:47:09.147Z,102135.86
2019-03-21T04:49:42.576Z,102134.22
2019-03-21T04:52:14.331Z,102135.53
2019-03-21T04:54:45.753Z,102139.98
2019-03-21T04:57:17.109Z,102131.73
2019-03-21T04:59:48.611Z,102133.95
2019-03-21T05:02:20.122Z,102138.98
2019-03-21T05:04:52.351Z,102135.74
2019-03-21T05:07:23.684Z,102137.12
2019-03-21T05:09:57.161Z,102138.66
2019-03-21T05:12:29.142Z,102133.30
2019-03-21T05:15:02.948Z,102131.93
2019-03-21T05:17:34.131Z,102131.89
2019-03-21T05:20:14.191Z,102129.52
2019-03-21T05:22:44.687Z,102132.64
2019-03-21T05:25:16.481Z,102129.30
2019-03-21T05:27:49.984Z,102139.70
2019-03-21T05:30:24.703Z,102136.41
2019-03-21T05:32:56.165Z,102147.16
2019-03-21T05:35:31.204Z,102145.64
2019-03-21T05:38:03.676Z,102141.44
2019-03-21T05:40:38.438Z,102136.98
2019-03-21T05:43:16.620Z,102128.20
2019-03-21T05:45:48.416Z,102122.67
2019-03-21T05:48:20.848Z,102130.84
2019-03-21T05:50:52.145Z,102135.84
2019-03-21T05:53:23.594Z,102136.55
2019-03-21T05:55:55.407Z,102130.89
2019-03-21T05:58:31.127Z,102132.27
2019-03-21T06:01:09.789Z,102129.01
2019-03-21T06:03:50.561Z,102131.98
2019-03-21T06:06:31.086Z,102130.70
2019-03-21T06:09:04.283Z,102123.24
2019-03-21T06:11:35.867Z,102124.44
2019-03-21T06:14:07.324Z,102108.70
2019-03-21T06:16:38.872Z,102112.94
2019-03-21T06:19:14.845Z,102119.98
2019-03-21T06:22:04.198Z,102113.53
2019-03-21T06:24:53.980Z,102120.52
2019-03-21T06:27:29.783Z,102110.64
2019-03-21T06:30:00.983Z,102107.34
2019-03-21T06:32:32.540Z,102103.61
2019-03-21T06:35:04.910Z,102096.91
2019-03-21T06:37:36.056Z,102096.66
2019-03-21T06:40:07.753Z,102094.91
2019-03-21T06:42:39.375Z,102089.75
2019-03-21T06:45:12.315Z,102093.97
2019-03-21T06:47:44.707Z,102093.45
2019-03-21T06:50:16.188Z,102093.93
2019-03-21T06:52:47.772Z,102094.49
2019-03-21T06:55:19.137Z,102093.48
2019-03-21T06:57:50.556Z,102096.41
2019-03-21T07:00:21.792Z,102090.33
2019-03-21T07:02:53.188Z,102088.42
2019-03-21T07:05:26.661Z,102085.39
2019-03-21T07:07:57.482Z,102082.92
2019-03-21T07:10:28.776Z,102082.53
2019-03-21T07:13:01.158Z,102071.89
2019-03-21T07:15:34.135Z,102070.33
2019-03-21T07:18:05.675Z,102070.28
2019-03-21T07:20:41.223Z,102070.82
2019-03-21T07:23:12.789Z,102073.50
2019-03-21T07:25:44.393Z,102072.16
2019-03-21T07:28:15.642Z,102071.76
2019-03-21T07:30:48.974Z,102073.41
2019-03-21T07:33:20.567Z,102075.58
2019-03-21T07:35:51.949Z,102060.92
2019-03-21T07:38:24.021Z,102062.12
2019-03-21T07:40:56.570Z,102064.06
2019-03-21T07:43:28.046Z,102063.28
2019-03-21T07:46:01.642Z,102061.25
2019-03-21T07:48:33.130Z,102062.02
2019-03-21T07:51:04.471Z,102067.10
2019-03-21T07:53:36.824Z,102056.91
2019-03-21T07:56:08.010Z,102058.45
2019-03-21T07:58:39.941Z,102055.04
2019-03-21T08:01:12.204Z,102050.58
2019-03-21T08:03:44.839Z,102052.97
2019-03-21T08:06:16.167Z,102048.41
2019-03-21T08:08:47.202Z,102040.52
2019-03-21T08:11:20.583Z,102036.84
2019-03-21T08:13:52.813Z,102037.70
2019-03-21T08:16:24.038Z,102023.78
2019-03-21T08:18:55.153Z,102028.51
2019-03-21T08:21:27.415Z,102033.93
2019-03-21T08:23:59.844Z,102029.56
2019-03-21T08:26:31.235Z,102023.45
2019-03-21T08:29:10.539Z,102015.67
2019-03-21T08:31:45.810Z,102020.09
2019-03-21T08:34:35.996Z,102011.78
2019-03-21T08:37:11.489Z,102018.64
2019-03-21T08:39:51.301Z,102021.44
2019-03-21T08:42:24.257Z,102020.45
2019-03-21T08:44:57.450Z,102032.07
2019-03-21T08:47:33.645Z,102023.69
2019-03-21T08:50:10.693Z,102017.22
2019-03-21T08:52:41.813Z,102008.84
2019-03-21T08:55:15.687Z,102003.27
2019-03-21T08:57:47.921Z,102012.45
2019-03-21T09:00:21.412Z,102004.69
2019-03-21T09:02:54.489Z,102011.58
2019-03-21T09:05:26.750Z,102000.97
2019-03-21T09:07:58.098Z,102013.47
2019-03-21T09:10:30.418Z,101999.81
2019-03-21T09:13:01.799Z,101996.55
2019-03-21T09:15:34.754Z,102001.92
2019-03-21T09:18:06.347Z,101987.84
2019-03-21T09:20:40.453Z,101992.75
2019-03-21T09:23:12.232Z,101993.23
2019-03-21T09:25:44.805Z,101989.45
2019-03-21T09:28:16.736Z,101986.06
2019-03-21T09:30:50.501Z,101986.91
2019-03-21T09:33:21.358Z,101981.80
2019-03-21T09:35:54.969Z,101987.98
2019-03-21T09:38:27.989Z,101983.73
2019-03-21T09:41:04.227Z,101982.05
2019-03-21T09:43:38.763Z,101976.78
2019-03-21T09:46:12.225Z,101982.33
2019-03-21T09:48:44.508Z,101975.84
2019-03-21T09:51:30.859Z,101979.23
2019-03-21T09:54:14.626Z,101963.79
2019-03-21T09:56:52.046Z,101974.36
2019-03-21T09:59:23.554Z,101963.89
2019-03-21T10:01:54.978Z,101971.20
2019-03-21T10:04:27.820Z,101968.47
2019-03-21T10:06:59.606Z,101960.36
2019-03-21T10:09:33.436Z,101960.41
2019-03-21T10:12:05.869Z,101956.02
2019-03-21T10:14:37.486Z,101945.27
2019-03-21T10:17:08.872Z,101939.59
2019-03-21T10:19:40.159Z,101932.12
2019-03-21T10:22:11.712Z,101935.75
2019-03-21T10:24:43.057Z,101924.86
2019-03-21T10:27:14.613Z,101915.05
2019-03-21T10:29:49.905Z,101913.33
2019-03-21T10:32:21.195Z,101911.88
2019-03-21T10:34:54.341Z,101907.60
2019-03-21T10:37:25.951Z,101899.94
2019-03-21T10:39:57.397Z,101917.41
2019-03-21T10:42:28.689Z,101885.95
2019-03-21T10:45:03.110Z,101873.26
2019-03-21T10:47:35.768Z,101875.44
2019-03-21T10:50:07.261Z,101878.34
2019-03-21T10:52:39.454Z,101876.39
2019-03-21T10:55:10.921Z,101873.39
2019-03-21T10:57:43.101Z,101872.87
2019-03-21T11:00:14.475Z,101871.77
2019-03-21T11:02:45.682Z,101863.66
2019-03-21T11:05:17.002Z,101853.81
2019-03-21T11:07:48.129Z,101853.20
2019-03-21T11:10:19.425Z,101855.29
2019-03-21T11:13:00.603Z,101850.69
2019-03-21T11:15:35.532Z,101849.63
2019-03-21T11:18:06.992Z,101853.53
2019-03-21T11:20:39.275Z,101857.58
2019-03-21T11:23:11.537Z,101847.78
2019-03-21T11:25:46.159Z,101837.80
2019-03-21T11:28:17.895Z,101837.64
2019-03-21T11:30:51.159Z,101836.09
2019-03-21T11:33:22.898Z,101842.73
2019-03-21T11:35:54.329Z,101832.59
2019-03-21T11:38:28.555Z,101834.45
2019-03-21T11:41:01.083Z,101827.20
2019-03-21T11:43:32.323Z,101817.06
2019-03-21T11:46:04.647Z,101825.98
2019-03-21T11:48:36.711Z,101830.09
2019-03-21T11:51:12.414Z,101822.02
2019-03-21T11:53:47.727Z,101817.92
2019-03-21T11:56:23.596Z,101813.77
2019-03-21T11:59:03.646Z,101810.84
2019-03-21T12:01:44.771Z,101807.56
2019-03-21T12:04:25.563Z,101799.11
2019-03-21T12:06:56.948Z,101803.39
2019-03-21T12:09:30.296Z,101797.31
2019-03-21T12:12:15.708Z,101797.05
2019-03-21T12:14:52.781Z,101789.68
2019-03-21T12:17:24.229Z,101786.32
2019-03-21T12:19:57.526Z,101778.20
2019-03-21T12:22:30.207Z,101786.15
2019-03-21T12:25:02.035Z,101769.86
2019-03-21T12:30:11.529Z,101767.88
2019-03-21T12:32:44.372Z,101766.14
2019-03-21T12:35:15.629Z,101736.93
2019-03-21T12:37:46.925Z,101751.20
2019-03-21T12:40:18.698Z,101767.16
2019-03-21T12:42:50.193Z,101768.95
2019-03-21T12:45:24.613Z,101755.11
2019-03-21T12:48:04.753Z,101764.76
2019-03-21T12:50:36.943Z,101762.58
2019-03-21T12:53:08.645Z,101751.47
2019-03-21T12:55:40.514Z,101731.09
2019-03-21T12:58:20.844Z,101739.47
2019-03-21T13:00:53.385Z,101743.58
2019-03-21T13:03:24.726Z,101743.73
2019-03-21T13:05:58.537Z,101741.09
2019-03-21T13:08:33.923Z,101745.19
2019-03-21T13:11:04.267Z,101741.34
2019-03-21T13:13:35.527Z,101742.14
2019-03-21T13:16:07.991Z,101749.44
2019-03-21T13:18:39.323Z,101750.81
2019-03-21T13:21:10.583Z,101751.77
2019-03-21T13:23:41.743Z,101727.76
2019-03-21T13:26:14.879Z,101741.05
2019-03-21T13:28:47.034Z,101746.77
2019-03-21T13:31:22.162Z,101744.74
2019-03-21T13:33:56.913Z,101739.41
2019-03-21T13:36:28.496Z,101749.68
2019-03-21T13:39:02.246Z,101737.18
2019-03-21T13:41:36.175Z,101730.85
2019-03-21T13:44:08.012Z,101721.13
2019-03-21T13:46:40.297Z,101733.04
2019-03-21T13:49:13.981Z,101734.72
2019-03-21T13:51:51.227Z,101723.45
2019-03-21T13:54:23.482Z,101719.66
2019-03-21T13:56:56.207Z,101714.07
2019-03-21T13:59:27.965Z,101709.93
2019-03-21T14:02:00.747Z,101708.25
2019-03-21T14:04:32.165Z,101711.16
2019-03-21T14:07:03.426Z,101715.88
2019-03-21T14:09:36.605Z,101717.22
2019-03-21T14:12:08.906Z,101708.26
2019-03-21T14:14:40.350Z,101700.15
2019-03-21T14:17:22.269Z,101713.59
2019-03-21T14:19:52.577Z,101665.88
2019-03-21T14:22:30.889Z,101711.02
2019-03-21T14:25:03.994Z,101710.77
2019-03-21T14:27:35.504Z,101718.92
2019-03-21T14:30:09.346Z,101714.67
2019-03-21T14:32:40.734Z,101726.31
2019-03-21T14:35:15.641Z,101724.11
2019-03-21T14:37:49.510Z,101722.05
2019-03-21T14:40:20.724Z,101714.39
2019-03-21T14:42:53.192Z,101722.05
2019-03-21T14:45:25.075Z,101721.44
2019-03-21T14:47:56.567Z,101720.73
2019-03-21T14:50:30.429Z,101719.34
2019-03-21T14:53:03.690Z,101717.38
2019-03-21T14:55:46.873Z,101718.98
2019-03-21T14:58:10.111Z,101714.98
2019-03-21T15:00:44.421Z,101725.28
2019-03-21T15:03:18.055Z,101709.49
2019-03-21T15:05:51.761Z,101728.87
2019-03-21T15:08:23.441Z,101728.50
2019-03-21T15:10:55.904Z,101727.45
2019-03-21T15:13:28.395Z,101737.13
2019-03-21T15:15:59.758Z,101727.69
2019-03-21T15:18:31.211Z,101732.39
2019-03-21T15:21:02.752Z,101737.73
2019-03-21T15:23:40.688Z,101725.33
2019-03-21T15:26:10.159Z,101736.95
2019-03-21T15:28:42.938Z,101734.40
2019-03-21T15:31:15.517Z,101737.30
2019-03-21T15:33:47.678Z,101742.85
2019-03-21T15:36:19.055Z,101755.55
2019-03-21T15:38:51.130Z,101748.58
2019-03-21T15:41:28.799Z,101745.55
2019-03-21T15:44:02.214Z,101734.00
2019-03-21T15:46:38.513Z,101742.54
2019-03-21T15:49:09.849Z,101743.84
2019-03-21T15:51:46.038Z,101749.70
2019-03-21T15:54:17.468Z,101747.64
2019-03-21T15:56:50.050Z,101746.44
2019-03-21T15:59:21.426Z,101747.01
2019-03-21T16:01:53.595Z,101748.47
2019-03-21T16:04:27.336Z,101746.50
2019-03-21T16:06:58.747Z,101745.77
2019-03-21T16:09:29.939Z,101746.56
2019-03-21T16:12:01.261Z,101743.77
2019-03-21T16:14:36.623Z,101753.91
2019-03-21T16:17:09.790Z,101750.94
2019-03-21T16:19:43.647Z,101753.66
2019-03-21T16:22:19.373Z,101755.59
2019-03-21T16:24:51.142Z,101750.00
2019-03-21T16:27:28.370Z,101752.41
2019-03-21T16:30:08.622Z,101746.19
2019-03-21T16:32:42.139Z,101753.46
2019-03-21T16:35:13.774Z,101755.00
2019-03-21T16:37:49.904Z,101760.97
2019-03-21T16:40:22.797Z,101760.80
2019-03-21T16:42:53.948Z,101764.78
2019-03-21T16:45:36.082Z,101770.58
2019-03-21T16:48:11.251Z,101774.05
2019-03-21T16:50:43.665Z,101778.72
2019-03-21T16:53:16.490Z,101791.94
2019-03-21T16:55:48.014Z,101787.34
2019-03-21T16:58:19.721Z,101783.95
2019-03-21T17:00:51.725Z,101792.14
2019-03-21T17:03:24.938Z,101790.95
2019-03-21T17:05:59.008Z,101795.95
2019-03-21T17:08:32.488Z,101802.43
2019-03-21T17:11:09.644Z,101803.61
2019-03-21T17:13:42.146Z,101808.58
2019-03-21T17:16:15.271Z,101814.66
2019-03-21T17:18:47.944Z,101810.02
2019-03-21T17:21:21.382Z,101826.90
2019-03-21T17:23:52.848Z,101831.48
2019-03-21T17:26:24.156Z,101825.25
2019-03-21T17:28:55.707Z,101845.40
2019-03-21T17:31:27.117Z,101854.36
2019-03-21T17:34:00.289Z,101846.94
2019-03-21T17:36:34.066Z,101861.43
2019-03-21T17:39:09.317Z,101862.02
2019-03-21T17:41:43.801Z,101865.83
2019-03-21T17:44:15.797Z,101866.23
2019-03-21T17:46:47.208Z,101872.33
2019-03-21T17:49:20.246Z,101870.46
2019-03-21T17:51:52.713Z,101873.13
2019-03-21T17:54:24.599Z,101869.28
2019-03-21T17:56:55.926Z,101867.67
2019-03-21T17:59:28.536Z,101872.89
2019-03-21T18:02:02.987Z,101876.70
2019-03-21T18:04:37.167Z,101874.78
2019-03-21T18:07:09.180Z,101885.77
2019-03-21T18:09:47.229Z,101886.07
2019-03-21T18:15:07.399Z,101884.84
2019-03-21T18:17:38.649Z,101888.33
2019-03-21T18:20:10.794Z,101895.16
2019-03-21T18:22:42.080Z,101893.83
2019-03-21T18:25:14.030Z,101898.58
2019-03-21T18:27:46.198Z,101908.91
2019-03-21T18:30:17.395Z,101897.51
2019-03-21T18:32:48.895Z,101907.84
2019-03-21T18:35:20.102Z,101906.20
2019-03-21T18:37:51.739Z,101904.13
2019-03-21T18:40:23.078Z,101909.61
2019-03-21T18:42:55.209Z,101918.90
2019-03-21T18:45:26.858Z,101922.84
2019-03-21T18:47:58.520Z,101919.73
2019-03-21T18:50:30.047Z,101915.25
2019-03-21T18:53:01.347Z,101917.22
2019-03-21T18:55:33.872Z,101913.99
2019-03-21T18:58:06.583Z,101930.83
2019-03-21T19:00:39.463Z,101915.02
2019-03-21T19:03:11.125Z,101918.95
2019-03-21T19:05:42.539Z,101929.16
2019-03-21T19:08:14.032Z,101923.44
2019-03-21T19:10:47.053Z,101929.03
2019-03-21T19:13:21.802Z,101926.50
2019-03-21T19:15:53.186Z,101934.62
2019-03-21T19:18:24.793Z,101943.59
2019-03-21T19:20:55.986Z,101941.41
2019-03-21T19:23:27.360Z,101947.86
2019-03-21T19:25:58.498Z,101920.86
2019-03-21T19:28:29.636Z,101943.06
2019-03-21T19:31:00.941Z,101958.47
2019-03-21T19:33:32.237Z,101951.14
2019-03-21T19:36:03.712Z,101943.72
2019-03-21T19:38:35.778Z,101941.07
2019-03-21T19:41:08.771Z,101944.16
2019-03-21T19:43:40.840Z,101938.73
2019-03-21T19:46:16.812Z,101944.20
2019-03-21T19:48:50.412Z,101943.61
2019-03-21T19:51:21.033Z,101942.21
2019-03-21T19:53:52.291Z,101938.97
2019-03-21T19:56:24.229Z,101934.20
2019-03-21T19:58:55.331Z,101940.45
2019-03-21T20:01:26.374Z,101933.50
2019-03-21T20:03:57.529Z,101942.41
2019-03-21T20:06:28.645Z,101941.38
2019-03-21T20:08:59.996Z,101944.66
2019-03-21T20:11:31.580Z,101944.66
2019-03-21T20:14:04.088Z,101942.31
2019-03-21T20:16:35.527Z,101946.05
2019-03-21T20:19:07.469Z,101938.64
2019-03-21T20:21:47.278Z,101947.38
2019-03-21T20:24:12.143Z,101938.41
2019-03-21T20:26:44.187Z,101939.63
2019-03-21T20:29:15.296Z,101946.19
2019-03-21T20:31:46.526Z,101946.05
2019-03-21T20:34:18.204Z,101938.97
2019-03-21T20:36:49.411Z,101940.98
2019-03-21T20:39:21.070Z,101935.42
2019-03-21T20:41:52.603Z,101932.84
2019-03-21T20:44:24.093Z,101935.98
2019-03-21T20:46:55.894Z,101938.17
2019-03-21T20:49:28.766Z,101932.18
2019-03-21T20:51:59.903Z,101938.90
2019-03-21T20:54:31.017Z,101936.81
2019-03-21T20:57:03.075Z,101936.98
2019-03-21T20:59:34.254Z,101939.62
2019-03-21T21:02:05.484Z,101935.02
2019-03-21T21:04:36.680Z,101933.00
2019-03-21T21:07:07.925Z,101933.66
2019-03-21T21:09:39.133Z,101926.55
2019-03-21T21:12:10.269Z,101929.69
2019-03-21T21:14:41.633Z,101933.66
2019-03-21T21:17:13.316Z,101927.10
2019-03-21T21:19:44.512Z,101927.80
2019-03-21T21:22:15.764Z,101920.95
2019-03-21T21:24:46.936Z,101920.19
2019-03-21T21:27:18.247Z,101919.58
2019-03-21T21:29:50.026Z,101919.19
2019-03-21T21:32:22.591Z,101916.94
2019-03-21T21:34:54.753Z,101921.59
2019-03-21T21:37:26.098Z,101916.78
2019-03-21T21:39:57.711Z,101916.88
2019-03-21T21:42:29.125Z,101909.47
2019-03-21T21:45:00.497Z,101914.67
2019-03-21T21:47:36.156Z,101912.59
2019-03-21T21:50:10.225Z,101917.78
2019-03-21T21:52:42.579Z,101919.20
2019-03-21T21:55:15.790Z,101918.92
2019-03-21T21:57:48.262Z,101906.39
2019-03-21T22:00:22.884Z,101911.82
2019-03-21T22:02:54.273Z,101910.23
2019-03-21T22:05:26.296Z,101908.52
2019-03-21T22:07:59.696Z,101915.16
2019-03-21T22:10:31.171Z,101909.84
2019-03-21T22:13:02.705Z,101915.99
2019-03-21T22:15:34.122Z,101914.80
2019-03-21T22:18:05.611Z,101916.05
2019-03-21T22:20:38.704Z,101918.19
2019-03-21T22:23:11.669Z,101915.16
2019-03-21T22:25:43.032Z,101921.02
2019-03-21T22:28:14.250Z,101922.97
2019-03-21T22:30:45.470Z,101918.53
2019-03-21T22:33:16.801Z,101918.44
2019-03-21T22:35:49.438Z,101919.86
2019-03-21T22:38:20.611Z,101918.20
2019-03-21T22:40:51.792Z,101923.89
2019-03-21T22:43:23.124Z,101917.82
2019-03-21T22:45:54.772Z,101925.20
2019-03-21T22:48:26.242Z,101920.47
2019-03-21T22:50:59.310Z,101923.97
2019-03-21T22:53:31.340Z,101916.19
2019-03-21T22:56:03.036Z,101918.53
2019-03-21T22:58:36.745Z,101913.24
2019-03-21T23:01:08.598Z,101919.16
2019-03-21T23:03:39.842Z,101914.56
2019-03-21T23:06:11.305Z,101909.64
2019-03-21T23:08:42.650Z,101913.24
2019-03-21T23:11:14.363Z,101910.80
2019-03-21T23:13:47.495Z,101921.16
2019-03-21T23:16:20.087Z,101909.11
2019-03-21T23:18:57.596Z,101905.75
2019-03-21T23:21:28.724Z,101915.33
2019-03-21T23:23:59.961Z,101915.48
2019-03-21T23:26:31.141Z,101916.41
2019-03-21T23:29:02.536Z,101914.87
2019-03-21T23:31:34.085Z,101911.98
2019-03-21T23:34:05.822Z,101912.84
2019-03-21T23:36:38.032Z,101913.24
2019-03-21T23:39:10.204Z,101908.30
2019-03-21T23:41:42.120Z,101902.02
2019-03-21T23:44:13.882Z,101904.13
2019-03-21T23:46:45.938Z,101900.70
2019-03-21T23:49:17.367Z,101897.05
2019-03-21T23:51:48.787Z,101894.11
2019-03-21T23:54:20.072Z,101895.59
2019-03-21T23:56:51.369Z,101892.48
2019-03-21T23:59:23.904Z,101889.91
